createdAt,value
2022-08-19T00:00:23.770Z,16.52
2022-08-19T00:01:28.605Z,16.52
2022-08-19T00:02:26.430Z,16.53
2022-08-19T00:03:26.312Z,16.53
2022-08-19T00:04:27.263Z,16.56
2022-08-19T00:05:28.105Z,16.56
2022-08-19T00:06:28.980Z,16.52
2022-08-19T00:07:29.863Z,16.53
2022-08-19T00:08:30.745Z,16.53
2022-08-19T00:09:31.618Z,16.56
2022-08-19T00:10:32.503Z,16.56
2022-08-19T00:11:33.393Z,16.57
2022-08-19T00:12:34.277Z,16.52
2022-08-19T00:13:36.047Z,16.53
2022-08-19T00:14:35.934Z,16.52
2022-08-19T00:15:36.802Z,16.52
2022-08-19T00:16:37.684Z,16.52
2022-08-19T00:17:38.578Z,16.50
2022-08-19T00:18:39.392Z,16.52
2022-08-19T00:19:40.266Z,16.52
2022-08-19T00:20:41.148Z,16.52
2022-08-19T00:21:42.031Z,16.52
2022-08-19T00:22:42.923Z,16.56
2022-08-19T00:23:43.809Z,16.56
2022-08-19T00:24:49.585Z,16.56
2022-08-19T00:25:48.791Z,16.57
2022-08-19T00:26:46.201Z,16.56
2022-08-19T00:27:47.083Z,16.56
2022-08-19T00:28:47.965Z,16.56
2022-08-19T00:29:52.464Z,16.56
2022-08-19T00:30:49.481Z,16.57
2022-08-19T00:31:50.663Z,16.56
2022-08-19T00:32:51.315Z,16.53
2022-08-19T00:33:51.711Z,16.53
2022-08-19T00:34:52.593Z,16.53
2022-08-19T00:35:56.124Z,16.56
2022-08-19T00:36:54.137Z,16.56
2022-08-19T00:37:55.012Z,16.57
2022-08-19T00:38:55.894Z,16.57
2022-08-19T00:39:56.912Z,16.57
2022-08-19T00:40:57.330Z,16.60
2022-08-19T00:41:58.232Z,16.57
2022-08-19T00:42:59.113Z,16.57
2022-08-19T00:43:59.991Z,16.58
2022-08-19T00:45:00.872Z,16.60
2022-08-19T00:46:01.747Z,16.60
2022-08-19T00:47:02.639Z,16.60
2022-08-19T00:48:03.265Z,16.58
2022-08-19T00:49:04.144Z,16.60
2022-08-19T00:50:05.015Z,16.58
2022-08-19T00:51:05.898Z,16.57
2022-08-19T00:52:06.789Z,16.53
2022-08-19T00:53:07.672Z,16.50
2022-08-19T00:54:08.556Z,16.53
2022-08-19T00:55:09.434Z,16.50
2022-08-19T00:56:10.305Z,16.50
2022-08-19T00:57:11.198Z,16.50
2022-08-19T00:58:12.081Z,16.49
2022-08-19T00:59:12.964Z,16.48
2022-08-19T01:00:13.845Z,16.49
2022-08-19T01:01:14.762Z,16.49
2022-08-19T01:02:15.602Z,16.50
2022-08-19T01:03:16.484Z,16.50
2022-08-19T01:04:17.100Z,16.52
2022-08-19T01:05:17.981Z,16.50
2022-08-19T01:06:19.890Z,16.52
2022-08-19T01:07:19.868Z,16.50
2022-08-19T01:08:20.224Z,16.53
2022-08-19T01:09:21.104Z,16.53
2022-08-19T01:10:21.978Z,16.52
2022-08-19T01:11:22.862Z,16.52
2022-08-19T01:12:23.756Z,16.52
2022-08-19T01:13:24.630Z,16.52
2022-08-19T01:14:25.504Z,16.52
2022-08-19T01:15:26.386Z,16.53
2022-08-19T01:16:27.268Z,16.53
2022-08-19T01:17:28.162Z,16.56
2022-08-19T01:18:29.047Z,16.53
2022-08-19T01:19:29.917Z,16.53
2022-08-19T01:20:30.580Z,16.53
2022-08-19T01:21:31.462Z,16.56
2022-08-19T01:22:33.925Z,16.53
2022-08-19T01:23:32.929Z,16.56
2022-08-19T01:24:33.820Z,16.53
2022-08-19T01:25:34.354Z,16.53
2022-08-19T01:26:35.237Z,16.53
2022-08-19T01:27:43.146Z,16.56
2022-08-19T01:28:39.830Z,16.53
2022-08-19T01:29:37.411Z,16.53
2022-08-19T01:30:37.955Z,16.56
2022-08-19T01:31:38.838Z,16.56
2022-08-19T01:32:39.722Z,16.53
2022-08-19T01:33:40.603Z,16.53
2022-08-19T01:34:41.476Z,16.53
2022-08-19T01:35:42.358Z,16.53
2022-08-19T01:36:43.254Z,16.53
2022-08-19T01:37:44.125Z,16.53
2022-08-19T01:38:45.007Z,16.53
2022-08-19T01:39:45.932Z,16.53
2022-08-19T01:40:46.764Z,16.53
2022-08-19T01:41:47.656Z,16.56
2022-08-19T01:42:48.623Z,16.56
2022-08-19T01:44:13.561Z,16.57
2022-08-19T01:44:51.212Z,16.57
2022-08-19T01:45:51.093Z,16.56
2022-08-19T01:46:51.986Z,16.58
2022-08-19T01:48:01.728Z,16.58
2022-08-19T01:48:54.647Z,16.58
2022-08-19T01:49:54.520Z,16.58
2022-08-19T01:50:55.395Z,16.57
2022-08-19T01:51:56.286Z,16.58
2022-08-19T01:53:06.179Z,16.58
2022-08-19T01:53:58.927Z,16.60
2022-08-19T01:54:58.814Z,16.57
2022-08-19T01:55:59.683Z,16.58
2022-08-19T01:57:00.576Z,16.58
2022-08-19T01:58:01.457Z,16.57
2022-08-19T01:59:02.331Z,16.57
2022-08-19T02:00:03.215Z,16.56
2022-08-19T02:01:04.158Z,16.56
2022-08-19T02:02:05.008Z,16.53
2022-08-19T02:03:05.881Z,16.50
2022-08-19T02:04:06.790Z,16.50
2022-08-19T02:05:07.641Z,16.49
2022-08-19T02:06:08.459Z,16.49
2022-08-19T02:07:09.410Z,16.49
2022-08-19T02:08:10.228Z,16.49
2022-08-19T02:09:11.098Z,16.49
2022-08-19T02:10:12.591Z,16.48
2022-08-19T02:11:12.774Z,16.48
2022-08-19T02:12:13.666Z,16.48
2022-08-19T02:13:14.557Z,16.48
2022-08-19T02:14:15.430Z,16.45
2022-08-19T02:15:16.303Z,16.43
2022-08-19T02:16:17.186Z,16.43
2022-08-19T02:17:18.069Z,16.42
2022-08-19T02:18:18.951Z,16.41
2022-08-19T02:19:19.832Z,16.39
2022-08-19T02:20:20.707Z,16.41
2022-08-19T02:21:21.592Z,16.39
2022-08-19T02:22:22.481Z,16.39
2022-08-19T02:23:23.356Z,16.39
2022-08-19T02:24:24.239Z,16.39
2022-08-19T02:25:25.139Z,16.41
2022-08-19T02:26:25.994Z,16.38
2022-08-19T02:27:26.877Z,16.38
2022-08-19T02:28:27.757Z,16.38
2022-08-19T02:29:28.634Z,16.35
2022-08-19T02:30:29.517Z,16.35
2022-08-19T02:31:30.390Z,16.34
2022-08-19T02:32:31.279Z,16.34
2022-08-19T02:33:32.151Z,16.35
2022-08-19T02:34:33.034Z,16.35
2022-08-19T02:35:33.907Z,16.35
2022-08-19T02:36:34.788Z,16.35
2022-08-19T02:37:35.680Z,16.35
2022-08-19T02:38:36.556Z,16.34
2022-08-19T02:39:37.464Z,16.34
2022-08-19T02:40:38.320Z,16.31
2022-08-19T02:41:39.194Z,16.33
2022-08-19T02:42:40.086Z,16.33
2022-08-19T02:43:44.466Z,16.31
2022-08-19T02:44:42.741Z,16.31
2022-08-19T02:45:42.613Z,16.34
2022-08-19T02:46:43.494Z,16.33
2022-08-19T02:47:44.377Z,16.31
2022-08-19T02:48:45.259Z,16.34
2022-08-19T02:49:46.134Z,16.33
2022-08-19T02:50:51.884Z,16.31
2022-08-19T02:51:48.785Z,16.34
2022-08-19T02:52:48.750Z,16.34
2022-08-19T02:53:49.591Z,16.34
2022-08-19T02:54:50.473Z,16.38
2022-08-19T02:55:51.393Z,16.35
2022-08-19T02:56:52.253Z,16.35
2022-08-19T02:57:53.147Z,16.35
2022-08-19T02:58:54.029Z,16.34
2022-08-19T02:59:54.902Z,16.34
2022-08-19T03:00:55.849Z,16.34
2022-08-19T03:01:56.717Z,16.33
2022-08-19T03:02:57.611Z,16.33
2022-08-19T03:03:58.494Z,16.31
2022-08-19T03:04:59.378Z,16.31
2022-08-19T03:06:00.252Z,16.31
2022-08-19T03:07:10.574Z,16.31
2022-08-19T03:08:02.917Z,16.31
2022-08-19T03:09:02.800Z,16.31
2022-08-19T03:10:03.672Z,16.30
2022-08-19T03:11:04.555Z,16.30
2022-08-19T03:12:05.428Z,16.30
2022-08-19T03:13:06.369Z,16.31
2022-08-19T03:14:07.211Z,16.30
2022-08-19T03:15:08.091Z,16.30
2022-08-19T03:16:08.966Z,16.28
2022-08-19T03:17:09.846Z,16.31
2022-08-19T03:18:10.729Z,16.30
2022-08-19T03:19:11.299Z,16.28
2022-08-19T03:20:12.147Z,16.28
2022-08-19T03:21:13.029Z,16.27
2022-08-19T03:22:13.916Z,16.25
2022-08-19T03:23:14.808Z,16.27
2022-08-19T03:24:15.680Z,16.27
2022-08-19T03:25:16.849Z,16.25
2022-08-19T03:26:17.352Z,16.25
2022-08-19T03:27:17.684Z,16.25
2022-08-19T03:28:18.581Z,16.24
2022-08-19T03:29:30.092Z,16.21
2022-08-19T03:30:23.356Z,16.23
2022-08-19T03:31:43.900Z,16.23
2022-08-19T03:32:32.294Z,16.20
2022-08-19T03:33:27.626Z,16.20
2022-08-19T03:34:24.469Z,16.17
2022-08-19T03:35:24.350Z,16.17
2022-08-19T03:36:25.286Z,16.15
2022-08-19T03:37:26.038Z,16.15
2022-08-19T03:38:26.932Z,16.15
2022-08-19T03:39:27.813Z,16.14
2022-08-19T03:40:28.686Z,16.11
2022-08-19T03:41:34.297Z,16.11
2022-08-19T03:42:38.841Z,16.11
2022-08-19T03:43:32.126Z,16.09
2022-08-19T03:44:32.009Z,16.08
2022-08-19T03:45:32.881Z,16.09
2022-08-19T03:46:33.764Z,16.08
2022-08-19T03:47:34.648Z,16.05
2022-08-19T03:48:35.599Z,16.05
2022-08-19T03:49:36.861Z,16.05
2022-08-19T03:50:37.217Z,16.02
2022-08-19T03:51:38.090Z,16.01
2022-08-19T03:52:38.973Z,16.02
2022-08-19T03:53:39.880Z,15.97
2022-08-19T03:54:40.811Z,15.97
2022-08-19T03:55:41.659Z,15.96
2022-08-19T03:56:42.541Z,15.94
2022-08-19T03:57:43.415Z,15.93
2022-08-19T03:58:44.307Z,15.94
2022-08-19T03:59:44.883Z,15.93
2022-08-19T04:00:45.808Z,15.93
2022-08-19T04:01:46.656Z,15.92
2022-08-19T04:02:58.026Z,15.92
2022-08-19T04:03:49.263Z,15.89
2022-08-19T04:04:49.144Z,15.89
2022-08-19T04:05:50.018Z,15.87
2022-08-19T04:06:50.943Z,15.86
2022-08-19T04:07:51.786Z,15.87
2022-08-19T04:08:52.654Z,15.86
2022-08-19T04:09:53.474Z,15.86
2022-08-19T04:10:54.306Z,15.84
2022-08-19T04:11:55.122Z,15.84
2022-08-19T04:12:55.992Z,15.82
2022-08-19T04:13:56.801Z,15.82
2022-08-19T04:14:57.629Z,15.82
2022-08-19T04:15:58.503Z,15.80
2022-08-19T04:16:59.386Z,15.78
2022-08-19T04:18:00.262Z,15.76
2022-08-19T04:19:01.211Z,15.76
2022-08-19T04:20:02.069Z,15.75
2022-08-19T04:21:03.837Z,15.75
2022-08-19T04:22:03.680Z,15.75
2022-08-19T04:23:04.510Z,15.74
2022-08-19T04:24:05.386Z,15.75
2022-08-19T04:25:06.202Z,15.74
2022-08-19T04:26:07.014Z,15.74
2022-08-19T04:27:07.567Z,15.72
2022-08-19T04:28:08.386Z,15.72
2022-08-19T04:29:12.334Z,15.74
2022-08-19T04:30:10.085Z,15.72
2022-08-19T04:31:10.933Z,15.72
2022-08-19T04:32:11.746Z,15.72
2022-08-19T04:33:12.580Z,15.71
2022-08-19T04:34:13.406Z,15.71
2022-08-19T04:35:17.640Z,15.72
2022-08-19T04:36:15.964Z,15.72
2022-08-19T04:37:15.781Z,15.71
2022-08-19T04:38:16.610Z,15.71
2022-08-19T04:39:17.476Z,15.72
2022-08-19T04:40:18.283Z,15.74
2022-08-19T04:41:19.119Z,15.71
2022-08-19T04:42:19.945Z,15.71
2022-08-19T04:43:21.659Z,15.72
2022-08-19T04:44:21.527Z,15.69
2022-08-19T04:45:22.974Z,15.71
2022-08-19T04:46:38.132Z,15.68
2022-08-19T04:47:48.171Z,15.69
2022-08-19T04:48:27.635Z,15.69
2022-08-19T04:49:25.115Z,15.69
2022-08-19T04:50:25.949Z,15.68
2022-08-19T04:51:26.784Z,15.69
2022-08-19T04:52:27.605Z,15.68
2022-08-19T04:53:28.433Z,15.69
2022-08-19T04:54:38.855Z,15.67
2022-08-19T04:55:33.371Z,15.65
2022-08-19T04:56:30.650Z,15.67
2022-08-19T04:57:31.479Z,15.68
2022-08-19T04:58:32.300Z,15.67
2022-08-19T04:59:33.153Z,15.67
2022-08-19T05:00:33.975Z,15.65
2022-08-19T05:01:34.470Z,15.65
2022-08-19T05:02:35.292Z,15.67
2022-08-19T05:03:36.118Z,15.67
2022-08-19T05:04:36.959Z,15.67
2022-08-19T05:05:44.691Z,15.64
2022-08-19T05:06:39.506Z,15.67
2022-08-19T05:07:39.331Z,15.67
2022-08-19T05:08:40.162Z,15.65
2022-08-19T05:09:56.638Z,15.64
2022-08-19T05:10:42.721Z,15.65
2022-08-19T05:11:42.548Z,15.65
2022-08-19T05:12:43.393Z,15.67
2022-08-19T05:13:44.208Z,15.65
2022-08-19T05:14:45.047Z,15.67
2022-08-19T05:15:45.874Z,15.67
2022-08-19T05:16:46.695Z,15.67
2022-08-19T05:17:47.526Z,15.67
2022-08-19T05:18:48.359Z,15.68
2022-08-19T05:19:49.199Z,15.68
2022-08-19T05:20:50.028Z,15.68
2022-08-19T05:21:50.857Z,15.68
2022-08-19T05:22:51.683Z,15.67
2022-08-19T05:23:52.505Z,15.68
2022-08-19T05:25:11.835Z,15.68
2022-08-19T05:25:55.063Z,15.68
2022-08-19T05:26:54.882Z,15.69
2022-08-19T05:27:55.711Z,15.69
2022-08-19T05:28:56.530Z,15.68
2022-08-19T05:29:57.374Z,15.68
2022-08-19T05:30:58.220Z,15.69
2022-08-19T05:31:59.033Z,15.69
2022-08-19T05:32:59.862Z,15.69
2022-08-19T05:34:00.692Z,15.72
2022-08-19T05:35:01.580Z,15.71
2022-08-19T05:36:02.362Z,15.71
2022-08-19T05:37:03.199Z,15.71
2022-08-19T05:38:04.024Z,15.71
2022-08-19T05:39:04.859Z,15.71
2022-08-19T05:40:05.768Z,15.71
2022-08-19T05:41:06.543Z,15.71
2022-08-19T05:42:07.370Z,15.71
2022-08-19T05:43:08.191Z,15.69
2022-08-19T05:44:09.018Z,15.71
2022-08-19T05:45:09.873Z,15.71
2022-08-19T05:46:10.687Z,15.72
2022-08-19T05:47:11.507Z,15.71
2022-08-19T05:48:12.346Z,15.72
2022-08-19T05:49:13.172Z,15.74
2022-08-19T05:50:14.024Z,15.75
2022-08-19T05:51:14.849Z,15.75
2022-08-19T05:52:15.584Z,15.72
2022-08-19T05:53:16.524Z,15.74
2022-08-19T05:54:17.352Z,15.75
2022-08-19T05:55:18.192Z,15.75
2022-08-19T05:56:19.023Z,15.75
2022-08-19T05:57:19.851Z,15.76
2022-08-19T05:58:23.102Z,15.74
2022-08-19T05:59:21.213Z,15.75
2022-08-19T06:00:24.654Z,15.74
2022-08-19T06:01:22.627Z,15.75
2022-08-19T06:02:23.540Z,15.75
2022-08-19T06:03:24.319Z,15.76
2022-08-19T06:04:25.163Z,15.78
2022-08-19T06:05:25.997Z,15.78
2022-08-19T06:06:26.820Z,15.78
2022-08-19T06:07:27.682Z,15.80
2022-08-19T06:08:34.557Z,15.78
2022-08-19T06:09:30.193Z,15.80
2022-08-19T06:10:30.023Z,15.80
2022-08-19T06:11:30.845Z,15.80
2022-08-19T06:12:31.703Z,15.82
2022-08-19T06:13:33.386Z,15.80
2022-08-19T06:14:33.405Z,15.82
2022-08-19T06:15:33.758Z,15.83
2022-08-19T06:16:34.575Z,15.83
2022-08-19T06:17:35.395Z,15.82
2022-08-19T06:18:36.227Z,15.83
2022-08-19T06:19:40.898Z,15.83
2022-08-19T06:20:54.906Z,15.82
2022-08-19T06:21:39.605Z,15.82
2022-08-19T06:22:39.443Z,15.82
2022-08-19T06:23:40.258Z,15.83
2022-08-19T06:24:41.086Z,15.82
2022-08-19T06:25:41.930Z,15.83
2022-08-19T06:26:42.913Z,15.86
2022-08-19T06:28:14.540Z,15.87
2022-08-19T06:28:45.419Z,15.90
2022-08-19T06:29:45.237Z,15.93
2022-08-19T06:30:46.074Z,15.94
2022-08-19T06:31:46.905Z,16.00
2022-08-19T06:32:47.761Z,16.01
2022-08-19T06:33:48.568Z,16.04
2022-08-19T06:34:49.508Z,16.05
2022-08-19T06:35:50.353Z,16.09
2022-08-19T06:36:51.181Z,16.12
2022-08-19T06:37:52.020Z,16.15
2022-08-19T06:38:52.837Z,16.20
2022-08-19T06:39:53.728Z,16.23
2022-08-19T06:40:54.538Z,16.24
2022-08-19T06:41:58.138Z,16.27
2022-08-19T06:42:56.444Z,16.30
2022-08-19T06:43:56.614Z,16.33
2022-08-19T06:44:57.518Z,16.33
2022-08-19T06:45:58.027Z,16.35
2022-08-19T06:46:58.865Z,16.38
2022-08-19T06:48:00.662Z,16.39
2022-08-19T06:49:00.413Z,16.41
2022-08-19T06:50:03.124Z,16.42
2022-08-19T06:51:01.726Z,16.43
2022-08-19T06:52:02.558Z,16.43
2022-08-19T06:53:04.518Z,16.48
2022-08-19T06:54:04.153Z,16.45
2022-08-19T06:55:06.072Z,16.46
2022-08-19T06:56:05.900Z,16.49
2022-08-19T06:57:06.719Z,16.49
2022-08-19T06:58:07.546Z,16.49
2022-08-19T06:59:08.443Z,16.49
2022-08-19T07:00:12.806Z,16.49
2022-08-19T07:01:09.907Z,16.49
2022-08-19T07:02:10.770Z,16.50
2022-08-19T07:03:13.286Z,16.49
2022-08-19T07:04:12.380Z,16.49
2022-08-19T07:05:13.202Z,16.49
2022-08-19T07:06:39.385Z,16.48
2022-08-19T07:07:21.009Z,16.48
2022-08-19T07:08:16.283Z,16.46
2022-08-19T07:09:18.598Z,16.45
2022-08-19T07:10:17.023Z,16.42
2022-08-19T07:11:17.851Z,16.42
2022-08-19T07:12:18.718Z,16.41
2022-08-19T07:13:19.378Z,16.41
2022-08-19T07:14:20.347Z,16.39
2022-08-19T07:15:21.187Z,16.38
2022-08-19T07:16:29.454Z,16.35
2022-08-19T07:17:23.760Z,16.34
2022-08-19T07:18:23.586Z,16.34
2022-08-19T07:19:24.411Z,16.33
2022-08-19T07:20:28.378Z,16.31
2022-08-19T07:21:25.820Z,16.33
2022-08-19T07:22:26.307Z,16.31
2022-08-19T07:23:27.139Z,16.30
2022-08-19T07:24:27.980Z,16.30
2022-08-19T07:25:32.392Z,16.30
2022-08-19T07:26:30.761Z,16.27
2022-08-19T07:27:30.254Z,16.25
2022-08-19T07:28:31.009Z,16.25
2022-08-19T07:29:31.887Z,16.24
2022-08-19T07:30:32.716Z,16.24
2022-08-19T07:31:33.491Z,16.23
2022-08-19T07:32:34.208Z,16.23
2022-08-19T07:33:35.038Z,16.23
2022-08-19T07:34:35.866Z,16.23
2022-08-19T07:35:37.655Z,16.21
2022-08-19T07:36:37.713Z,16.20
2022-08-19T07:37:38.068Z,16.21
2022-08-19T07:38:38.894Z,16.21
2022-08-19T07:39:39.825Z,16.20
2022-08-19T07:40:40.620Z,16.23
2022-08-19T07:41:41.442Z,16.21
2022-08-19T07:42:42.274Z,16.20
2022-08-19T07:43:43.103Z,16.21
2022-08-19T07:44:50.304Z,16.21
2022-08-19T07:45:45.664Z,16.20
2022-08-19T07:46:46.548Z,16.21
2022-08-19T07:47:49.397Z,16.21
2022-08-19T07:48:46.745Z,16.21
2022-08-19T07:49:47.586Z,16.21
2022-08-19T07:50:48.421Z,16.23
2022-08-19T07:51:49.243Z,16.23
2022-08-19T07:52:50.064Z,16.24
2022-08-19T07:53:50.892Z,16.24
2022-08-19T07:54:51.720Z,16.25
2022-08-19T07:55:52.552Z,16.24
2022-08-19T07:56:53.389Z,16.25
2022-08-19T07:57:54.211Z,16.25
2022-08-19T07:59:55.852Z,16.27
2022-08-19T08:00:56.680Z,16.27
2022-08-19T08:01:57.600Z,16.28
2022-08-19T08:02:58.391Z,16.28
2022-08-19T08:03:59.227Z,16.27
2022-08-19T08:05:00.086Z,16.30
2022-08-19T08:06:00.893Z,16.30
2022-08-19T08:07:01.719Z,16.31
2022-08-19T08:08:02.538Z,16.30
2022-08-19T08:09:03.373Z,16.31
2022-08-19T08:10:04.276Z,16.33
2022-08-19T08:11:05.187Z,16.31
2022-08-19T08:12:32.988Z,16.34
2022-08-19T08:13:09.316Z,16.35
2022-08-19T08:14:07.099Z,16.34
2022-08-19T08:15:08.857Z,16.34
2022-08-19T08:16:10.426Z,16.38
2022-08-19T08:17:10.889Z,16.38
2022-08-19T08:18:09.907Z,16.35
2022-08-19T08:19:18.202Z,16.35
2022-08-19T08:20:12.467Z,16.38
2022-08-19T08:21:12.285Z,16.38
2022-08-19T08:22:13.106Z,16.39
2022-08-19T08:23:14.034Z,16.41
2022-08-19T08:24:14.803Z,16.41
2022-08-19T08:25:15.640Z,16.38
2022-08-19T08:26:16.460Z,16.39
2022-08-19T08:27:17.315Z,16.38
2022-08-19T08:28:18.112Z,16.34
2022-08-19T08:29:18.456Z,16.33
2022-08-19T08:30:19.206Z,16.30
2022-08-19T08:31:19.966Z,16.30
2022-08-19T08:32:20.936Z,16.27
2022-08-19T08:33:28.352Z,16.25
2022-08-19T08:34:23.490Z,16.25
2022-08-19T08:35:23.318Z,16.24
2022-08-19T08:36:24.139Z,16.25
2022-08-19T08:37:24.968Z,16.24
2022-08-19T08:38:25.789Z,16.25
2022-08-19T08:39:26.508Z,16.25
2022-08-19T08:40:27.353Z,16.28
2022-08-19T08:41:28.170Z,16.27
2022-08-19T08:42:28.990Z,16.30
2022-08-19T08:43:32.299Z,16.28
2022-08-19T08:44:30.770Z,16.27
2022-08-19T08:45:32.968Z,16.27
2022-08-19T08:46:33.328Z,16.28
2022-08-19T08:47:33.157Z,16.27
2022-08-19T08:48:33.981Z,16.28
2022-08-19T08:49:34.486Z,16.28
2022-08-19T08:50:35.306Z,16.30
2022-08-19T08:51:36.202Z,16.30
2022-08-19T08:52:36.995Z,16.33
2022-08-19T08:53:41.431Z,16.33
2022-08-19T08:54:38.259Z,16.34
2022-08-19T08:55:39.095Z,16.34
2022-08-19T08:56:39.920Z,16.34
2022-08-19T08:57:41.210Z,16.39
2022-08-19T08:58:41.350Z,16.39
2022-08-19T08:59:42.176Z,16.39
2022-08-19T09:00:43.008Z,16.41
2022-08-19T09:01:43.917Z,16.43
2022-08-19T09:02:44.667Z,16.45
2022-08-19T09:03:46.395Z,16.46
2022-08-19T09:04:46.212Z,16.49
2022-08-19T09:05:48.526Z,16.50
2022-08-19T09:06:48.112Z,16.53
2022-08-19T09:07:48.976Z,16.53
2022-08-19T09:08:49.643Z,16.56
2022-08-19T09:09:50.273Z,16.56
2022-08-19T09:10:55.276Z,16.58
2022-08-19T09:11:51.883Z,16.60
2022-08-19T09:12:52.863Z,16.60
2022-08-19T09:13:53.690Z,16.63
2022-08-19T09:14:54.510Z,16.63
2022-08-19T09:15:55.381Z,16.66
2022-08-19T09:16:56.202Z,16.67
2022-08-19T09:17:57.031Z,16.68
2022-08-19T09:18:57.913Z,16.70
2022-08-19T09:19:58.740Z,16.71
2022-08-19T09:20:59.580Z,16.75
2022-08-19T09:22:00.423Z,16.76
2022-08-19T09:23:01.184Z,16.79
2022-08-19T09:24:03.300Z,16.81
2022-08-19T09:25:02.927Z,16.81
2022-08-19T09:26:03.830Z,16.86
2022-08-19T09:27:08.361Z,16.89
2022-08-19T09:28:22.068Z,16.93
2022-08-19T09:29:07.090Z,16.94
2022-08-19T09:30:06.938Z,16.96
2022-08-19T09:31:07.767Z,16.96
2022-08-19T09:32:08.583Z,17.00
2022-08-19T09:33:10.298Z,17.00
2022-08-19T09:34:20.699Z,17.03
2022-08-19T09:35:12.016Z,17.06
2022-08-19T09:36:11.424Z,17.07
2022-08-19T09:37:12.240Z,17.08
2022-08-19T09:38:12.941Z,17.12
2022-08-19T09:39:16.106Z,17.14
2022-08-19T09:40:15.470Z,17.16
2022-08-19T09:41:14.958Z,17.18
2022-08-19T09:42:16.373Z,17.21
2022-08-19T09:43:33.197Z,17.23
2022-08-19T09:44:18.843Z,17.23
2022-08-19T09:45:17.857Z,17.26
2022-08-19T09:46:18.689Z,17.28
2022-08-19T09:47:19.996Z,17.31
2022-08-19T09:48:23.565Z,17.33
2022-08-19T09:49:21.011Z,17.34
2022-08-19T09:50:21.862Z,17.38
2022-08-19T09:51:22.680Z,17.38
2022-08-19T09:52:23.641Z,17.40
2022-08-19T09:53:25.184Z,17.44
2022-08-19T09:54:25.570Z,17.44
2022-08-19T09:55:31.217Z,17.49
2022-08-19T09:56:28.141Z,17.52
2022-08-19T09:57:27.966Z,17.51
2022-08-19T09:58:28.799Z,17.54
2022-08-19T09:59:29.617Z,17.55
2022-08-19T10:00:30.583Z,17.55
2022-08-19T10:01:31.517Z,17.56
2022-08-19T10:02:32.361Z,17.56
2022-08-19T10:03:33.145Z,17.58
2022-08-19T10:04:33.973Z,17.62
2022-08-19T10:05:34.943Z,17.62
2022-08-19T10:06:45.197Z,17.64
2022-08-19T10:07:37.488Z,17.64
2022-08-19T10:08:37.387Z,17.66
2022-08-19T10:09:38.171Z,17.68
2022-08-19T10:10:38.975Z,17.70
2022-08-19T10:11:39.681Z,17.71
2022-08-19T10:12:40.442Z,17.74
2022-08-19T10:13:41.261Z,17.75
2022-08-19T10:14:42.120Z,17.77
2022-08-19T10:15:45.257Z,17.77
2022-08-19T10:16:44.665Z,17.79
2022-08-19T10:17:48.043Z,17.82
2022-08-19T10:18:49.750Z,17.84
2022-08-19T10:19:50.030Z,17.86
2022-08-19T10:20:51.530Z,17.92
2022-08-19T10:21:47.628Z,17.96
2022-08-19T10:22:48.238Z,18.00
2022-08-19T10:23:49.171Z,18.07
2022-08-19T10:24:49.832Z,18.12
2022-08-19T10:25:50.775Z,18.20
2022-08-19T10:26:57.182Z,18.25
2022-08-19T10:27:53.646Z,18.30
2022-08-19T10:28:53.173Z,18.37
2022-08-19T10:29:54.003Z,18.44
2022-08-19T10:30:54.690Z,18.50
2022-08-19T10:32:00.510Z,18.52
2022-08-19T10:32:57.247Z,18.55
2022-08-19T10:33:57.071Z,18.55
2022-08-19T10:34:57.900Z,18.55
2022-08-19T10:35:58.744Z,18.57
2022-08-19T10:37:00.798Z,18.60
2022-08-19T10:38:00.368Z,18.63
2022-08-19T10:39:00.951Z,18.66
2022-08-19T10:40:01.820Z,18.70
2022-08-19T10:41:02.650Z,18.75
2022-08-19T10:42:03.480Z,18.78
2022-08-19T10:43:04.308Z,18.81
2022-08-19T10:44:05.140Z,18.84
2022-08-19T10:45:05.972Z,18.84
2022-08-19T10:46:09.472Z,18.88
2022-08-19T10:47:17.203Z,18.92
2022-08-19T10:48:09.262Z,18.98
2022-08-19T10:49:09.976Z,19.02
2022-08-19T10:50:12.003Z,19.08
2022-08-19T10:51:10.497Z,19.14
2022-08-19T10:52:12.222Z,19.21
2022-08-19T10:53:12.928Z,19.23
2022-08-19T10:54:12.785Z,19.26
2022-08-19T10:55:13.579Z,19.32
2022-08-19T10:56:14.410Z,19.32
2022-08-19T10:57:15.238Z,19.40
2022-08-19T10:58:16.069Z,19.43
2022-08-19T10:59:16.890Z,19.47
2022-08-19T11:00:17.708Z,19.50
2022-08-19T11:01:18.613Z,19.51
2022-08-19T11:02:19.452Z,19.56
2022-08-19T11:03:20.278Z,19.61
2022-08-19T11:04:21.107Z,19.61
2022-08-19T11:05:21.929Z,19.65
2022-08-19T11:06:22.769Z,19.66
2022-08-19T11:07:23.598Z,19.68
2022-08-19T11:08:24.418Z,19.73
2022-08-19T11:09:33.347Z,19.74
2022-08-19T11:10:26.988Z,19.78
2022-08-19T11:11:26.805Z,19.83
2022-08-19T11:12:27.650Z,19.87
2022-08-19T11:13:28.466Z,19.87
2022-08-19T11:14:29.292Z,19.96
2022-08-19T11:15:29.955Z,19.99
2022-08-19T11:16:31.295Z,20.01
2022-08-19T11:17:31.582Z,20.01
2022-08-19T11:18:32.402Z,20.01
2022-08-19T11:19:33.234Z,20.01
2022-08-19T11:20:34.060Z,20.01
2022-08-19T11:21:34.892Z,19.98
2022-08-19T11:22:39.032Z,19.99
2022-08-19T11:23:37.450Z,19.99
2022-08-19T11:24:37.272Z,19.99
2022-08-19T11:25:38.100Z,20.01
2022-08-19T11:26:38.933Z,19.99
2022-08-19T11:27:39.761Z,19.96
2022-08-19T11:28:40.596Z,19.96
2022-08-19T11:29:41.422Z,19.98
2022-08-19T11:30:42.238Z,19.96
2022-08-19T11:31:43.077Z,19.98
2022-08-19T11:32:49.077Z,19.98
2022-08-19T11:33:47.583Z,19.96
2022-08-19T11:34:45.163Z,19.98
2022-08-19T11:35:45.996Z,19.96
2022-08-19T11:36:46.833Z,19.98
2022-08-19T11:37:47.787Z,19.98
2022-08-19T11:38:48.567Z,19.98
2022-08-19T11:39:49.396Z,19.99
2022-08-19T11:40:50.219Z,19.96
2022-08-19T11:41:51.067Z,19.92
2022-08-19T11:42:51.899Z,19.92
2022-08-19T11:43:52.727Z,19.88
2022-08-19T11:44:53.548Z,19.88
2022-08-19T11:45:54.384Z,19.87
2022-08-19T11:46:55.254Z,19.86
2022-08-19T11:47:56.248Z,19.84
2022-08-19T11:48:56.580Z,19.83
2022-08-19T11:49:57.404Z,19.80
2022-08-19T11:50:58.232Z,19.80
2022-08-19T11:51:59.072Z,19.77
2022-08-19T11:52:59.893Z,19.77
2022-08-19T11:54:00.722Z,19.77
2022-08-19T11:55:01.556Z,19.76
2022-08-19T11:56:02.381Z,19.77
2022-08-19T11:57:03.211Z,19.78
2022-08-19T11:58:04.060Z,19.78
2022-08-19T11:59:04.890Z,19.81
2022-08-19T12:00:05.716Z,19.81
2022-08-19T12:01:06.542Z,19.83
2022-08-19T12:02:07.409Z,19.83
2022-08-19T12:03:08.223Z,19.84
2022-08-19T12:04:09.101Z,19.84
2022-08-19T12:05:12.514Z,19.83
2022-08-19T12:06:10.521Z,19.83
2022-08-19T12:07:11.349Z,19.81
2022-08-19T12:08:12.191Z,19.80
2022-08-19T12:09:13.008Z,19.78
2022-08-19T12:10:13.840Z,19.77
2022-08-19T12:11:15.571Z,19.77
2022-08-19T12:12:15.407Z,19.74
2022-08-19T12:13:16.242Z,19.69
2022-08-19T12:14:17.955Z,19.65
2022-08-19T12:15:17.950Z,19.61
2022-08-19T12:16:18.792Z,19.58
2022-08-19T12:17:19.638Z,19.51
2022-08-19T12:18:20.471Z,19.46
2022-08-19T12:19:22.302Z,19.43
2022-08-19T12:20:21.939Z,19.39
2022-08-19T12:21:22.768Z,19.37
2022-08-19T12:22:23.600Z,19.33
2022-08-19T12:23:24.431Z,19.32
2022-08-19T12:24:25.258Z,19.32
2022-08-19T12:25:26.087Z,19.31
2022-08-19T12:26:26.929Z,19.29
2022-08-19T12:27:40.326Z,19.25
2022-08-19T12:28:29.471Z,19.23
2022-08-19T12:29:29.345Z,19.22
2022-08-19T12:30:30.169Z,19.22
2022-08-19T12:31:30.870Z,19.23
2022-08-19T12:32:31.709Z,19.22
2022-08-19T12:33:32.536Z,19.22
2022-08-19T12:34:33.360Z,19.22
2022-08-19T12:35:34.184Z,19.23
2022-08-19T12:36:35.004Z,19.22
2022-08-19T12:37:35.683Z,19.23
2022-08-19T12:38:36.503Z,19.22
2022-08-19T12:39:37.368Z,19.25
2022-08-19T12:40:38.164Z,19.25
2022-08-19T12:41:51.351Z,19.26
2022-08-19T12:42:40.741Z,19.26
2022-08-19T12:43:40.570Z,19.26
2022-08-19T12:44:42.597Z,19.26
2022-08-19T12:45:42.001Z,19.25
2022-08-19T12:46:42.531Z,19.25
2022-08-19T12:47:43.198Z,19.23
2022-08-19T12:48:43.944Z,19.22
2022-08-19T12:49:55.059Z,19.22
2022-08-19T12:50:46.468Z,19.22
2022-08-19T12:51:46.296Z,19.21
2022-08-19T12:52:47.337Z,19.21
2022-08-19T12:53:48.092Z,19.19
2022-08-19T12:54:48.923Z,19.18
2022-08-19T12:55:50.645Z,19.18
2022-08-19T12:56:50.479Z,19.18
2022-08-19T12:57:51.309Z,19.16
2022-08-19T12:58:53.168Z,19.14
2022-08-19T12:59:53.029Z,19.13
2022-08-19T13:00:53.906Z,19.13
2022-08-19T13:01:54.725Z,19.11
2022-08-19T13:02:55.700Z,19.11
2022-08-19T13:03:56.459Z,19.11